createdAt,value
2023-04-09T00:00:46.136Z,4.83
2023-04-09T00:01:46.153Z,4.85
2023-04-09T00:02:46.225Z,4.79
2023-04-09T00:03:46.292Z,4.73
2023-04-09T00:04:46.310Z,4.78
2023-04-09T00:05:46.193Z,4.78
2023-04-09T00:06:46.202Z,4.78
2023-04-09T00:07:46.219Z,4.73
2023-04-09T00:08:46.233Z,4.73
2023-04-09T00:09:46.244Z,4.73
2023-04-09T00:10:46.250Z,4.72
2023-04-09T00:11:46.256Z,4.70
2023-04-09T00:12:46.282Z,4.72
2023-04-09T00:13:46.298Z,4.71
2023-04-09T00:14:46.333Z,4.68
2023-04-09T00:15:46.303Z,4.72
2023-04-09T00:16:46.396Z,4.72
2023-04-09T00:17:46.347Z,4.70
2023-04-09T00:18:46.342Z,4.67
2023-04-09T00:19:46.333Z,4.68
2023-04-09T00:20:46.318Z,4.69
2023-04-09T00:21:46.300Z,4.70
2023-04-09T00:22:46.287Z,4.69
2023-04-09T00:23:46.268Z,4.66
2023-04-09T00:24:46.267Z,4.66
2023-04-09T00:25:46.244Z,4.69
2023-04-09T00:26:46.224Z,4.65
2023-04-09T00:27:46.211Z,4.64
2023-04-09T00:28:46.214Z,4.65
2023-04-09T00:29:46.175Z,4.61
2023-04-09T00:30:46.165Z,4.59
2023-04-09T00:31:46.165Z,4.65
2023-04-09T00:32:46.189Z,4.60
2023-04-09T00:33:46.112Z,4.64
2023-04-09T00:34:46.117Z,4.56
2023-04-09T00:35:46.085Z,4.64
2023-04-09T00:36:46.068Z,4.54
2023-04-09T00:37:46.064Z,4.54
2023-04-09T00:38:46.062Z,4.52
2023-04-09T00:39:46.034Z,4.55
2023-04-09T00:40:45.999Z,4.57
2023-04-09T00:41:45.990Z,4.53
2023-04-09T00:42:45.962Z,4.52
2023-04-09T00:43:45.942Z,4.49
2023-04-09T00:44:45.936Z,4.46
2023-04-09T00:45:45.955Z,4.44
2023-04-09T00:46:45.898Z,4.46
2023-04-09T00:47:45.930Z,4.46
2023-04-09T00:48:45.907Z,4.39
2023-04-09T00:49:45.912Z,4.43
2023-04-09T00:50:45.911Z,4.42
2023-04-09T00:51:45.918Z,4.44
2023-04-09T00:52:45.936Z,4.39
2023-04-09T00:53:45.927Z,4.41
2023-04-09T00:54:45.943Z,4.44
2023-04-09T00:55:45.955Z,4.37
2023-04-09T00:56:45.954Z,4.35
2023-04-09T00:57:45.963Z,4.33
2023-04-09T00:58:45.978Z,4.31
2023-04-09T00:59:45.995Z,4.29
2023-04-09T01:00:46.037Z,4.35
2023-04-09T01:01:46.016Z,4.33
2023-04-09T01:02:46.125Z,4.34
2023-04-09T01:03:46.085Z,4.33
2023-04-09T01:04:46.043Z,4.32
2023-04-09T01:05:46.063Z,4.29
2023-04-09T01:06:46.072Z,4.26
2023-04-09T01:07:46.075Z,4.28
2023-04-09T01:08:46.099Z,4.24
2023-04-09T01:09:46.123Z,4.27
2023-04-09T01:10:46.117Z,4.27
2023-04-09T01:11:46.125Z,4.27
2023-04-09T01:12:46.143Z,4.24
2023-04-09T01:13:46.151Z,4.24
2023-04-09T01:14:46.178Z,4.21
2023-04-09T01:15:46.164Z,4.18
2023-04-09T01:16:46.197Z,4.20
2023-04-09T01:17:46.199Z,4.24
2023-04-09T01:18:46.184Z,4.19
2023-04-09T01:19:46.197Z,4.17
2023-04-09T01:20:46.212Z,4.23
2023-04-09T01:21:46.229Z,4.16
2023-04-09T01:22:46.232Z,4.15
2023-04-09T01:23:46.238Z,4.15
2023-04-09T01:24:46.284Z,4.14
2023-04-09T01:25:46.335Z,4.11
2023-04-09T01:26:46.298Z,4.10
2023-04-09T01:27:46.277Z,4.10
2023-04-09T01:28:46.291Z,4.13
2023-04-09T01:29:46.308Z,4.05
2023-04-09T01:30:46.368Z,4.02
2023-04-09T01:31:46.325Z,4.04
2023-04-09T01:32:46.380Z,4.05
2023-04-09T01:33:46.338Z,4.09
2023-04-09T01:34:46.354Z,4.10
2023-04-09T01:35:46.407Z,4.03
2023-04-09T01:36:46.382Z,4.11
2023-04-09T01:37:46.382Z,4.03
2023-04-09T01:38:46.394Z,4.02
2023-04-09T01:39:46.403Z,4.02
2023-04-09T01:40:46.422Z,4.06
2023-04-09T01:41:46.424Z,4.02
2023-04-09T01:42:46.437Z,4.02
2023-04-09T01:43:46.440Z,4.02
2023-04-09T01:44:46.460Z,3.98
2023-04-09T01:45:46.489Z,4.00
2023-04-09T01:46:46.482Z,4.01
2023-04-09T01:47:46.493Z,3.98
2023-04-09T01:48:46.489Z,3.94
2023-04-09T01:49:46.517Z,3.97
2023-04-09T01:50:46.520Z,3.97
2023-04-09T01:51:46.542Z,3.94
2023-04-09T01:52:46.530Z,3.95
2023-04-09T01:53:46.544Z,3.93
2023-04-09T01:54:46.549Z,3.93
2023-04-09T01:55:46.560Z,3.95
2023-04-09T01:56:46.572Z,3.94
2023-04-09T01:57:46.578Z,3.91
2023-04-09T01:58:46.589Z,3.84
2023-04-09T01:59:46.599Z,3.91
2023-04-09T02:00:46.621Z,3.87
2023-04-09T02:01:46.784Z,3.88
2023-04-09T02:02:46.677Z,3.84
2023-04-09T02:03:46.753Z,3.90
2023-04-09T02:04:46.666Z,3.83
2023-04-09T02:05:46.672Z,3.84
2023-04-09T02:06:46.678Z,3.85
2023-04-09T02:07:46.687Z,3.80
2023-04-09T02:08:46.710Z,3.81
2023-04-09T02:09:46.708Z,3.78
2023-04-09T02:10:46.730Z,3.82
2023-04-09T02:11:46.737Z,3.79
2023-04-09T02:12:46.752Z,3.79
2023-04-09T02:13:46.759Z,3.77
2023-04-09T02:14:46.768Z,3.75
2023-04-09T02:15:46.825Z,3.74
2023-04-09T02:16:46.779Z,3.76
2023-04-09T02:17:46.858Z,3.71
2023-04-09T02:18:46.822Z,3.74
2023-04-09T02:19:46.811Z,3.73
2023-04-09T02:20:46.837Z,3.75
2023-04-09T02:21:46.823Z,3.69
2023-04-09T02:22:46.839Z,3.71
2023-04-09T02:23:46.839Z,3.70
2023-04-09T02:24:46.858Z,3.65
2023-04-09T02:25:46.878Z,3.67
2023-04-09T02:26:46.888Z,3.67
2023-04-09T02:27:46.893Z,3.64
2023-04-09T02:28:46.897Z,3.64
2023-04-09T02:29:46.908Z,3.64
2023-04-09T02:30:46.982Z,3.64
2023-04-09T02:31:46.936Z,3.67
2023-04-09T02:32:46.977Z,3.66
2023-04-09T02:33:46.954Z,3.62
2023-04-09T02:34:46.967Z,3.63
2023-04-09T02:35:46.992Z,3.64
2023-04-09T02:36:46.994Z,3.60
2023-04-09T02:37:47.007Z,3.59
2023-04-09T02:38:47.016Z,3.58
2023-04-09T02:39:47.041Z,3.58
2023-04-09T02:40:47.057Z,3.59
2023-04-09T02:41:47.047Z,3.57
2023-04-09T02:42:47.058Z,3.59
2023-04-09T02:43:47.073Z,3.59
2023-04-09T02:44:47.091Z,3.57
2023-04-09T02:45:47.103Z,3.56
2023-04-09T02:46:47.197Z,3.56
2023-04-09T02:47:47.156Z,3.55
2023-04-09T02:48:47.146Z,3.51
2023-04-09T02:49:47.163Z,3.52
2023-04-09T02:50:47.174Z,3.50
2023-04-09T02:51:47.177Z,3.50
2023-04-09T02:52:47.216Z,3.49
2023-04-09T02:53:47.209Z,3.47
2023-04-09T02:54:47.230Z,3.48
2023-04-09T02:55:47.251Z,3.49
2023-04-09T02:56:47.293Z,2.81
2023-04-09T02:57:47.306Z,2.30
2023-04-09T02:58:47.320Z,2.13
2023-04-09T02:59:47.345Z,2.03
2023-04-09T03:00:47.361Z,1.83
2023-04-09T03:01:47.458Z,1.62
2023-04-09T03:02:47.521Z,1.48
2023-04-09T03:03:47.592Z,1.33
2023-04-09T03:04:47.534Z,1.20
2023-04-09T03:05:47.599Z,1.10
2023-04-09T03:06:47.661Z,0.96
2023-04-09T03:07:47.717Z,0.84
2023-04-09T03:08:47.774Z,0.77
2023-04-09T03:09:47.837Z,0.70
2023-04-09T03:10:47.892Z,0.67
2023-04-09T03:11:47.952Z,0.56
2023-04-09T03:12:48.028Z,0.53
2023-04-09T03:13:48.096Z,0.51
2023-04-09T03:14:48.172Z,0.50
2023-04-09T03:15:48.261Z,0.51
2023-04-09T03:16:48.315Z,0.50
2023-04-09T03:17:48.377Z,0.51
2023-04-09T03:18:48.420Z,0.50
2023-04-09T03:19:48.473Z,0.49
2023-04-09T03:20:48.514Z,0.51
2023-04-09T03:21:48.556Z,0.50
2023-04-09T03:22:48.598Z,0.50
2023-04-09T03:23:48.630Z,0.51
2023-04-09T03:24:48.684Z,0.49
2023-04-09T03:25:48.785Z,0.51
2023-04-09T03:26:48.867Z,0.50
2023-04-09T03:27:48.923Z,0.50
2023-04-09T03:28:49.003Z,0.50
2023-04-09T03:29:49.072Z,0.52
2023-04-09T03:30:49.117Z,0.50
2023-04-09T03:31:49.139Z,0.51
2023-04-09T03:32:49.161Z,0.50
2023-04-09T03:33:49.227Z,0.51
2023-04-09T03:34:49.274Z,0.50
2023-04-09T03:35:49.388Z,0.50
2023-04-09T03:36:49.349Z,0.49
2023-04-09T03:37:49.353Z,0.48
2023-04-09T03:38:49.485Z,0.46
2023-04-09T03:39:49.379Z,0.46
2023-04-09T03:40:49.412Z,0.44
2023-04-09T03:41:49.417Z,0.50
2023-04-09T03:42:49.427Z,0.50
2023-04-09T03:43:49.450Z,0.51
2023-04-09T03:44:49.462Z,0.50
2023-04-09T03:45:49.491Z,0.52
2023-04-09T03:46:49.547Z,0.52
2023-04-09T03:47:49.601Z,0.51
2023-04-09T03:48:49.643Z,0.50
2023-04-09T03:49:49.680Z,0.50
2023-04-09T03:50:49.781Z,0.50
2023-04-09T03:51:49.866Z,0.51
2023-04-09T03:52:49.948Z,0.50
2023-04-09T03:53:49.978Z,0.51
2023-04-09T03:54:50.039Z,0.54
2023-04-09T03:55:50.097Z,0.50
2023-04-09T03:56:50.115Z,0.50
2023-04-09T03:57:50.120Z,0.49
2023-04-09T03:58:50.417Z,0.50
2023-04-09T03:59:50.160Z,0.51
2023-04-09T04:00:50.161Z,0.50
2023-04-09T04:01:50.331Z,0.50
2023-04-09T04:02:50.605Z,0.50
2023-04-09T04:03:50.332Z,0.53
2023-04-09T04:04:50.283Z,0.51
2023-04-09T04:05:50.225Z,0.53
2023-04-09T04:06:50.270Z,0.53
2023-04-09T04:07:50.255Z,0.54
2023-04-09T04:08:50.327Z,0.54
2023-04-09T04:09:50.269Z,0.54
2023-04-09T04:10:50.296Z,0.52
2023-04-09T04:11:50.307Z,0.52
2023-04-09T04:12:50.370Z,0.54
2023-04-09T04:13:50.337Z,0.52
2023-04-09T04:14:50.346Z,0.52
2023-04-09T04:15:50.353Z,0.50
2023-04-09T04:16:50.372Z,0.51
2023-04-09T04:17:50.397Z,0.51
2023-04-09T04:18:50.730Z,0.51
2023-04-09T04:19:50.405Z,0.50
2023-04-09T04:20:50.422Z,0.53
2023-04-09T04:21:50.441Z,0.52
2023-04-09T04:22:50.444Z,0.51
2023-04-09T04:23:50.468Z,0.50
2023-04-09T04:24:50.479Z,0.52
2023-04-09T04:25:50.488Z,0.51
2023-04-09T04:26:50.545Z,0.51
2023-04-09T04:27:50.553Z,0.52
2023-04-09T04:28:50.830Z,0.51
2023-04-09T04:29:50.629Z,0.53
2023-04-09T04:30:50.668Z,0.52
2023-04-09T04:31:50.766Z,0.51
2023-04-09T04:32:50.805Z,0.50
2023-04-09T04:33:50.734Z,0.51
2023-04-09T04:34:50.764Z,0.50
2023-04-09T04:35:50.801Z,0.52
2023-04-09T04:36:50.788Z,0.52
2023-04-09T04:37:50.799Z,0.50
2023-04-09T04:38:50.983Z,0.53
2023-04-09T04:39:50.830Z,0.54
2023-04-09T04:40:50.847Z,0.54
2023-04-09T04:41:50.858Z,0.56
2023-04-09T04:42:50.852Z,0.57
2023-04-09T04:43:50.858Z,0.58
2023-04-09T04:44:50.863Z,0.56
2023-04-09T04:45:52.374Z,0.59
2023-04-09T04:46:51.099Z,0.59
2023-04-09T04:47:51.178Z,0.61
2023-04-09T04:48:51.407Z,0.61
2023-04-09T04:49:51.181Z,0.60
2023-04-09T04:50:51.203Z,0.60
2023-04-09T04:51:51.245Z,0.61
2023-04-09T04:52:51.249Z,0.61
2023-04-09T04:53:51.285Z,0.64
2023-04-09T04:54:51.290Z,0.62
2023-04-09T04:55:51.323Z,0.64
2023-04-09T04:56:51.407Z,0.66
2023-04-09T04:57:51.379Z,0.62
2023-04-09T04:58:51.653Z,0.64
2023-04-09T04:59:51.432Z,0.65
2023-04-09T05:00:51.482Z,0.66
2023-04-09T05:01:51.531Z,0.68
2023-04-09T05:02:51.769Z,0.70
2023-04-09T05:03:51.652Z,0.70
2023-04-09T05:04:51.603Z,0.68
2023-04-09T05:05:51.636Z,0.73
2023-04-09T05:06:51.678Z,0.71
2023-04-09T05:07:51.703Z,0.70
2023-04-09T05:08:52.172Z,0.73
2023-04-09T05:09:51.755Z,0.70
2023-04-09T05:10:51.787Z,0.72
2023-04-09T05:11:51.824Z,0.69
2023-04-09T05:12:51.851Z,0.72
2023-04-09T05:13:51.868Z,0.72
2023-04-09T05:14:51.895Z,0.72
2023-04-09T05:15:51.932Z,0.72
2023-04-09T05:16:51.988Z,0.73
2023-04-09T05:17:52.036Z,0.74
2023-04-09T05:18:52.374Z,0.74
2023-04-09T05:19:52.049Z,0.74
2023-04-09T05:20:52.056Z,0.73
2023-04-09T05:21:52.098Z,0.74
2023-04-09T05:22:52.263Z,0.75
2023-04-09T05:23:52.091Z,0.75
2023-04-09T05:24:52.112Z,0.76
2023-04-09T05:25:52.115Z,0.77
2023-04-09T05:26:52.138Z,0.75
2023-04-09T05:27:52.157Z,0.76
2023-04-09T05:28:52.414Z,0.77
2023-04-09T05:29:52.171Z,0.78
2023-04-09T05:30:52.243Z,0.76
2023-04-09T05:31:52.204Z,0.77
2023-04-09T05:32:52.271Z,0.72
2023-04-09T05:33:52.238Z,0.74
2023-04-09T05:34:52.240Z,0.76
2023-04-09T05:35:52.333Z,0.74
2023-04-09T05:36:52.280Z,0.75
2023-04-09T05:37:52.297Z,0.81
2023-04-09T05:38:52.735Z,0.79
2023-04-09T05:39:52.320Z,0.84
2023-04-09T05:40:52.324Z,0.90
2023-04-09T05:41:52.357Z,0.87
2023-04-09T05:42:52.355Z,0.87
2023-04-09T05:43:52.568Z,0.86
2023-04-09T05:44:52.449Z,0.86
2023-04-09T05:45:52.502Z,0.84
2023-04-09T05:46:52.506Z,0.84
2023-04-09T05:47:52.603Z,0.80
2023-04-09T05:48:52.979Z,0.80
2023-04-09T05:49:52.592Z,0.80
2023-04-09T05:50:55.616Z,0.81
2023-04-09T05:51:52.658Z,0.82
2023-04-09T05:52:52.654Z,0.89
2023-04-09T05:53:53.114Z,0.98
2023-04-09T05:54:52.684Z,0.94
2023-04-09T05:55:52.717Z,0.96
2023-04-09T05:56:52.714Z,0.91
2023-04-09T05:57:52.752Z,0.94
2023-04-09T05:58:52.723Z,0.92
2023-04-09T05:59:52.725Z,0.93
2023-04-09T06:00:52.762Z,0.88
2023-04-09T06:01:52.830Z,0.86
2023-04-09T06:02:52.850Z,0.86
2023-04-09T06:03:54.767Z,0.89
2023-04-09T06:04:52.813Z,0.87
2023-04-09T06:05:52.816Z,0.81
2023-04-09T06:06:52.840Z,0.80
2023-04-09T06:07:52.870Z,0.78
2023-04-09T06:08:52.867Z,0.79
2023-04-09T06:09:52.885Z,0.81
2023-04-09T06:10:52.906Z,0.80
2023-04-09T06:11:52.931Z,0.78
2023-04-09T06:12:52.956Z,0.78
2023-04-09T06:13:53.142Z,0.79
2023-04-09T06:14:52.993Z,0.80
2023-04-09T06:15:53.067Z,0.80
2023-04-09T06:16:53.027Z,0.81
2023-04-09T06:17:53.120Z,0.85
2023-04-09T06:18:53.059Z,0.84
2023-04-09T06:19:53.078Z,0.87
2023-04-09T06:20:53.101Z,0.83
2023-04-09T06:21:53.139Z,0.85
2023-04-09T06:22:53.143Z,0.86
2023-04-09T06:23:53.643Z,0.92
2023-04-09T06:24:53.182Z,0.92
2023-04-09T06:25:53.212Z,0.90
2023-04-09T06:26:53.233Z,0.89
2023-04-09T06:27:53.252Z,0.89
2023-04-09T06:28:53.286Z,0.93
2023-04-09T06:29:53.297Z,0.94
2023-04-09T06:30:53.394Z,0.92
2023-04-09T06:31:53.347Z,0.94
2023-04-09T06:32:55.410Z,0.91
2023-04-09T06:33:53.479Z,0.91
2023-04-09T06:34:53.394Z,0.92
2023-04-09T06:35:53.436Z,0.92
2023-04-09T06:36:53.432Z,0.91
2023-04-09T06:37:53.478Z,0.92
2023-04-09T06:38:53.483Z,0.93
2023-04-09T06:40:00.939Z,0.96
2023-04-09T06:40:54.531Z,0.91
2023-04-09T06:41:53.539Z,0.93
2023-04-09T06:42:53.553Z,0.96
2023-04-09T06:43:53.733Z,0.98
2023-04-09T06:44:53.584Z,1.07
2023-04-09T06:45:53.619Z,1.07
2023-04-09T06:46:53.785Z,1.04
2023-04-09T06:47:53.666Z,1.04
2023-04-09T06:48:53.659Z,1.06
2023-04-09T06:49:53.683Z,1.08
2023-04-09T06:50:53.703Z,1.06
2023-04-09T06:51:53.736Z,1.12
2023-04-09T06:52:53.754Z,1.12
2023-04-09T06:53:54.003Z,1.11
2023-04-09T06:54:53.805Z,1.11
2023-04-09T06:55:55.427Z,1.11
2023-04-09T06:56:54.107Z,1.11
2023-04-09T06:57:54.158Z,1.07
2023-04-09T06:58:54.178Z,1.11
2023-04-09T06:59:54.215Z,1.11
2023-04-09T07:00:54.248Z,1.12
2023-04-09T07:01:54.729Z,1.09
2023-04-09T07:02:54.486Z,1.10
2023-04-09T07:03:54.515Z,1.08
2023-04-09T07:04:54.369Z,1.09
2023-04-09T07:05:54.376Z,1.09
2023-04-09T07:06:54.397Z,1.10
2023-04-09T07:07:54.436Z,1.09
2023-04-09T07:08:54.745Z,1.11
2023-04-09T07:09:54.463Z,1.10
2023-04-09T07:10:54.483Z,1.10
2023-04-09T07:11:54.496Z,1.09
2023-04-09T07:12:54.514Z,1.13
2023-04-09T07:13:54.642Z,1.10
2023-04-09T07:14:54.551Z,1.11
2023-04-09T07:15:54.559Z,1.15
2023-04-09T07:16:54.584Z,1.17
2023-04-09T07:17:54.622Z,1.15
2023-04-09T07:18:54.628Z,1.14
2023-04-09T07:19:54.648Z,1.12
2023-04-09T07:20:54.638Z,1.11
2023-04-09T07:21:54.672Z,1.16
2023-04-09T07:22:54.667Z,1.10
2023-04-09T07:23:54.998Z,1.15
2023-04-09T07:24:54.727Z,1.11
2023-04-09T07:25:54.734Z,1.13
2023-04-09T07:26:54.750Z,1.14
2023-04-09T07:27:54.767Z,1.16
2023-04-09T07:28:54.788Z,1.17
2023-04-09T07:29:54.811Z,1.20
2023-04-09T07:30:54.824Z,1.19
2023-04-09T07:31:54.949Z,1.20
2023-04-09T07:32:54.881Z,1.26
2023-04-09T07:33:55.216Z,1.22
2023-04-09T07:34:54.929Z,1.22
2023-04-09T07:35:56.060Z,1.21
2023-04-09T07:36:54.969Z,1.17
2023-04-09T07:37:55.004Z,1.23
2023-04-09T07:38:55.275Z,1.31
2023-04-09T07:39:55.027Z,1.25
2023-04-09T07:40:55.048Z,1.25
2023-04-09T07:41:55.069Z,1.25
2023-04-09T07:42:55.101Z,1.24
2023-04-09T07:43:55.117Z,1.29
2023-04-09T07:44:55.149Z,1.31
2023-04-09T07:45:55.154Z,1.30
2023-04-09T07:46:55.222Z,1.32
2023-04-09T07:47:55.223Z,1.36
2023-04-09T07:48:55.498Z,1.33
2023-04-09T07:49:55.266Z,1.34
2023-04-09T07:50:55.255Z,1.36
2023-04-09T07:51:55.277Z,1.41
2023-04-09T07:52:55.298Z,1.37
2023-04-09T07:53:55.344Z,1.40
2023-04-09T07:54:55.338Z,1.42
2023-04-09T07:55:55.354Z,1.43
2023-04-09T07:56:55.382Z,1.43
2023-04-09T07:57:55.389Z,1.38
2023-04-09T07:58:55.415Z,1.44
2023-04-09T07:59:55.457Z,1.41
2023-04-09T08:00:55.455Z,1.40
2023-04-09T08:01:55.514Z,1.38
2023-04-09T08:02:55.677Z,1.38
2023-04-09T08:03:55.710Z,1.42
2023-04-09T08:04:55.671Z,1.39
2023-04-09T08:05:55.588Z,1.42
2023-04-09T08:06:55.631Z,1.39
2023-04-09T08:07:55.662Z,1.38
2023-04-09T08:08:55.740Z,1.39
2023-04-09T08:09:55.753Z,1.37
2023-04-09T08:10:55.814Z,1.34
2023-04-09T08:11:55.887Z,1.33
2023-04-09T08:12:55.878Z,1.34
2023-04-09T08:13:55.916Z,1.36
2023-04-09T08:14:55.960Z,1.38
2023-04-09T08:15:56.060Z,1.44
2023-04-09T08:16:56.074Z,1.47
2023-04-09T08:17:56.126Z,1.49
2023-04-09T08:18:56.126Z,1.55
2023-04-09T08:19:56.161Z,1.47
2023-04-09T08:20:56.181Z,1.49
2023-04-09T08:21:56.225Z,1.52
2023-04-09T08:22:56.259Z,1.50
2023-04-09T08:23:56.288Z,1.55
2023-04-09T08:24:56.308Z,1.57
2023-04-09T08:25:56.340Z,1.49
2023-04-09T08:26:56.363Z,1.53
2023-04-09T08:27:56.398Z,1.53
2023-04-09T08:28:56.425Z,1.55
2023-04-09T08:29:56.455Z,1.58
2023-04-09T08:30:56.497Z,1.57
2023-04-09T08:31:56.601Z,1.53
2023-04-09T08:32:56.583Z,1.56
2023-04-09T08:33:56.574Z,1.56
2023-04-09T08:34:56.563Z,1.58
2023-04-09T08:35:56.558Z,1.58
2023-04-09T08:36:56.569Z,1.59
2023-04-09T08:37:56.579Z,1.66
2023-04-09T08:38:56.714Z,1.71
2023-04-09T08:39:56.602Z,1.62
2023-04-09T08:40:56.617Z,1.61
2023-04-09T08:41:56.638Z,1.62
2023-04-09T08:42:56.643Z,1.64
2023-04-09T08:43:58.833Z,1.58
2023-04-09T08:44:56.666Z,1.53
2023-04-09T08:45:56.675Z,1.52
2023-04-09T08:46:58.442Z,1.50
2023-04-09T08:47:56.730Z,1.50
2023-04-09T08:48:56.728Z,1.47
2023-04-09T08:49:56.721Z,1.39
2023-04-09T08:50:56.715Z,1.46
2023-04-09T08:51:56.728Z,1.38
2023-04-09T08:52:56.731Z,1.41
2023-04-09T08:53:56.746Z,1.33
2023-04-09T08:54:56.789Z,1.34
2023-04-09T08:55:56.767Z,1.27
2023-04-09T08:56:56.769Z,1.30
2023-04-09T08:57:56.765Z,1.26
2023-04-09T08:58:56.776Z,1.29
2023-04-09T08:59:56.803Z,1.44
2023-04-09T09:00:56.821Z,1.50
2023-04-09T09:01:56.884Z,1.77
2023-04-09T09:02:56.913Z,1.89
2023-04-09T09:03:56.875Z,2.08
2023-04-09T09:04:56.805Z,2.41
2023-04-09T09:05:56.814Z,2.69
2023-04-09T09:06:56.916Z,3.13
2023-04-09T09:07:56.820Z,3.53
2023-04-09T09:08:56.818Z,3.67
2023-04-09T09:09:56.826Z,3.74
2023-04-09T09:10:56.830Z,3.91
2023-04-09T09:11:56.828Z,4.06
2023-04-09T09:12:56.828Z,4.38
2023-04-09T09:13:56.829Z,4.48
2023-04-09T09:14:56.823Z,4.65
2023-04-09T09:15:56.828Z,4.94
2023-04-09T09:16:56.924Z,5.09
2023-04-09T09:17:56.885Z,5.27
2023-04-09T09:18:57.058Z,5.63
2023-04-09T09:19:56.834Z,5.79
2023-04-09T09:20:56.822Z,5.96
2023-04-09T09:21:56.810Z,6.13
2023-04-09T09:22:57.094Z,6.66
2023-04-09T09:23:56.813Z,6.71
2023-04-09T09:24:56.813Z,6.87
2023-04-09T09:25:56.813Z,7.10
2023-04-09T09:26:56.814Z,7.35
2023-04-09T09:27:56.817Z,7.29
2023-04-09T09:28:56.821Z,7.55
2023-04-09T09:29:56.835Z,7.95
2023-04-09T09:30:56.863Z,7.97
2023-04-09T09:31:56.829Z,8.06
2023-04-09T09:32:56.859Z,8.20
2023-04-09T09:33:56.858Z,8.45
2023-04-09T09:34:56.859Z,9.01
2023-04-09T09:35:56.879Z,9.18
2023-04-09T09:36:56.841Z,9.20
2023-04-09T09:37:56.833Z,9.28
2023-04-09T09:38:56.829Z,9.47
2023-04-09T09:39:56.831Z,9.77
2023-04-09T09:40:56.830Z,10.26
2023-04-09T09:41:56.819Z,10.53
2023-04-09T09:42:56.824Z,10.68
2023-04-09T09:43:56.821Z,10.86
2023-04-09T09:44:56.828Z,11.28
2023-04-09T09:45:56.826Z,11.16
2023-04-09T09:46:56.814Z,11.29
2023-04-09T09:47:56.829Z,11.43
2023-04-09T09:48:56.801Z,11.50
2023-04-09T09:49:56.826Z,11.69
2023-04-09T09:50:56.861Z,11.78
2023-04-09T09:51:56.919Z,12.09
2023-04-09T09:52:56.945Z,12.08
2023-04-09T09:53:57.008Z,12.14
2023-04-09T09:54:57.030Z,12.30
2023-04-09T09:55:57.060Z,12.43
2023-04-09T09:56:57.102Z,12.72
2023-04-09T09:57:57.136Z,12.89
2023-04-09T09:58:57.170Z,12.84
2023-04-09T09:59:57.206Z,12.87
2023-04-09T10:00:57.242Z,12.82
2023-04-09T10:01:57.334Z,13.13
2023-04-09T10:02:57.393Z,13.66
2023-04-09T10:03:57.342Z,13.68
2023-04-09T10:04:57.369Z,13.79
2023-04-09T10:05:57.463Z,13.98
2023-04-09T10:06:57.430Z,14.20
2023-04-09T10:07:57.473Z,14.22
2023-04-09T10:08:57.497Z,14.28
2023-04-09T10:09:57.548Z,14.34
2023-04-09T10:10:57.565Z,14.35
2023-04-09T10:11:57.577Z,14.38
2023-04-09T10:12:57.597Z,14.68
2023-04-09T10:13:57.613Z,14.68
2023-04-09T10:14:57.662Z,14.49
2023-04-09T10:15:57.743Z,14.80
2023-04-09T10:16:57.680Z,14.83
2023-04-09T10:17:57.729Z,14.89
2023-04-09T10:18:57.720Z,14.95
2023-04-09T10:19:57.748Z,15.02
2023-04-09T10:20:57.768Z,15.16
2023-04-09T10:21:57.788Z,15.26
2023-04-09T10:22:57.820Z,15.19
2023-04-09T10:23:57.833Z,15.14
2023-04-09T10:24:57.883Z,15.28
2023-04-09T10:25:57.883Z,15.31
2023-04-09T10:26:57.894Z,15.31
2023-04-09T10:27:57.922Z,15.23
2023-04-09T10:28:57.937Z,15.23
2023-04-09T10:29:57.966Z,15.37
2023-04-09T10:30:58.013Z,15.37
2023-04-09T10:31:57.993Z,15.66
2023-04-09T10:32:58.028Z,15.56
2023-04-09T10:33:58.034Z,15.61
2023-04-09T10:34:58.050Z,15.63
2023-04-09T10:35:58.097Z,15.59
2023-04-09T10:36:58.088Z,15.74
2023-04-09T10:37:58.104Z,15.69
2023-04-09T10:38:58.119Z,15.74
2023-04-09T10:39:58.141Z,15.69
2023-04-09T10:40:58.159Z,15.79
2023-04-09T10:41:58.167Z,15.94
2023-04-09T10:42:58.178Z,15.78
2023-04-09T10:43:58.181Z,15.81
2023-04-09T10:44:58.199Z,15.91
2023-04-09T10:45:58.215Z,15.98
2023-04-09T10:46:58.272Z,16.11
2023-04-09T10:47:58.272Z,15.87
2023-04-09T10:48:58.247Z,15.92
2023-04-09T10:49:58.255Z,16.00
2023-04-09T10:50:58.268Z,15.97
2023-04-09T10:51:58.277Z,15.93
2023-04-09T10:52:58.341Z,16.10
2023-04-09T10:53:58.292Z,16.04
2023-04-09T10:54:58.289Z,15.89
2023-04-09T10:55:58.310Z,16.07
2023-04-09T10:56:58.307Z,16.16
2023-04-09T10:57:58.304Z,16.10
2023-04-09T10:58:58.313Z,16.11
2023-04-09T10:59:58.310Z,16.06
2023-04-09T11:00:58.331Z,15.95
2023-04-09T11:01:58.414Z,16.16
2023-04-09T11:02:58.414Z,16.08
2023-04-09T11:03:58.320Z,16.20
2023-04-09T11:04:58.463Z,16.02
2023-04-09T11:05:58.354Z,16.32
2023-04-09T11:06:58.337Z,16.09
2023-04-09T11:07:58.342Z,16.11
2023-04-09T11:08:58.345Z,16.09
2023-04-09T11:09:58.345Z,16.08
2023-04-09T11:10:58.366Z,16.21
2023-04-09T11:11:58.349Z,16.15
2023-04-09T11:12:58.348Z,16.14
2023-04-09T11:13:58.353Z,15.99
2023-04-09T11:14:58.353Z,15.99
2023-04-09T11:15:58.391Z,16.09
2023-04-09T11:16:58.350Z,16.17
2023-04-09T11:17:58.431Z,15.86
2023-04-09T11:18:58.363Z,16.12
2023-04-09T11:19:58.345Z,16.00
2023-04-09T11:20:58.387Z,15.91
2023-04-09T11:21:58.347Z,15.91
2023-04-09T11:22:58.347Z,15.78
2023-04-09T11:23:58.335Z,16.10
2023-04-09T11:24:58.334Z,15.89
2023-04-09T11:25:58.340Z,15.87
2023-04-09T11:26:58.340Z,15.90
2023-04-09T11:27:58.325Z,15.92
2023-04-09T11:28:58.334Z,15.90
2023-04-09T11:29:58.315Z,15.81
2023-04-09T11:30:58.310Z,15.64
2023-04-09T11:31:58.352Z,15.67
2023-04-09T11:32:58.361Z,15.68
2023-04-09T11:33:58.281Z,15.50
2023-04-09T11:34:58.284Z,15.82
2023-04-09T11:35:58.320Z,15.57
2023-04-09T11:36:58.273Z,15.65
2023-04-09T11:37:58.264Z,15.74
2023-04-09T11:38:58.269Z,15.46
2023-04-09T11:39:58.269Z,15.25
2023-04-09T11:40:58.276Z,15.37
2023-04-09T11:41:58.261Z,15.47
2023-04-09T11:42:58.263Z,15.70
2023-04-09T11:43:58.254Z,15.54
2023-04-09T11:44:58.247Z,15.40
2023-04-09T11:45:58.239Z,15.29
2023-04-09T11:46:58.272Z,15.47
2023-04-09T11:47:58.286Z,15.29
2023-04-09T11:48:58.219Z,15.44
2023-04-09T11:49:58.213Z,15.35
2023-04-09T11:50:58.206Z,15.27
2023-04-09T11:51:58.171Z,15.00
2023-04-09T11:52:58.167Z,14.96
2023-04-09T11:53:58.146Z,15.33
2023-04-09T11:54:58.147Z,14.98
2023-04-09T11:55:58.147Z,15.09
2023-04-09T11:56:58.124Z,14.83
2023-04-09T11:57:58.125Z,14.71
2023-04-09T11:58:58.096Z,14.86
2023-04-09T11:59:58.073Z,14.79
2023-04-09T12:00:58.080Z,15.25
2023-04-09T12:01:58.165Z,14.79
2023-04-09T12:02:58.190Z,14.95
2023-04-09T12:03:58.176Z,14.57
2023-04-09T12:04:58.124Z,14.88
2023-04-09T12:05:58.021Z,14.57
2023-04-09T12:06:58.033Z,14.79
2023-04-09T12:07:58.050Z,14.64
2023-04-09T12:08:58.080Z,14.66
2023-04-09T12:09:58.114Z,14.51
2023-04-09T12:10:58.174Z,14.51
2023-04-09T12:11:58.238Z,14.58
2023-04-09T12:12:58.276Z,14.38
2023-04-09T12:13:58.287Z,14.24
2023-04-09T12:14:58.336Z,14.33
2023-04-09T12:15:59.201Z,14.72
2023-04-09T12:16:58.465Z,14.38
2023-04-09T12:17:58.465Z,14.31
2023-04-09T12:18:58.516Z,14.35
2023-04-09T12:19:58.562Z,14.04
2023-04-09T12:20:58.617Z,14.34
2023-04-09T12:21:58.701Z,14.26
2023-04-09T12:22:58.735Z,14.10
2023-04-09T12:23:58.792Z,14.03
2023-04-09T12:24:58.844Z,14.07
2023-04-09T12:25:58.893Z,14.22
2023-04-09T12:26:58.951Z,14.39
2023-04-09T12:27:58.978Z,14.04
2023-04-09T12:28:59.021Z,14.07
2023-04-09T12:29:59.070Z,14.02
2023-04-09T12:30:59.102Z,14.44
2023-04-09T12:31:59.191Z,14.07
2023-04-09T12:32:59.215Z,13.80
2023-04-09T12:33:59.221Z,13.80
2023-04-09T12:34:59.247Z,13.84
2023-04-09T12:35:59.282Z,13.72
2023-04-09T12:36:59.282Z,13.48
2023-04-09T12:37:59.389Z,13.87
2023-04-09T12:38:59.336Z,13.53
2023-04-09T12:39:59.358Z,13.62
2023-04-09T12:40:59.372Z,13.40
2023-04-09T12:41:59.391Z,13.93
2023-04-09T12:42:59.391Z,13.33
2023-04-09T12:43:59.427Z,13.49
2023-04-09T12:44:59.465Z,13.39
2023-04-09T12:45:59.538Z,13.57
2023-04-09T12:46:59.539Z,13.45
2023-04-09T12:47:59.617Z,13.29
2023-04-09T12:48:59.613Z,13.34
2023-04-09T12:49:59.622Z,13.29
2023-04-09T12:50:59.677Z,13.57
2023-04-09T12:51:59.657Z,13.59
2023-04-09T12:52:59.629Z,13.59
2023-04-09T12:53:59.613Z,13.47
2023-04-09T12:54:59.583Z,13.57
2023-04-09T12:55:59.574Z,13.30
2023-04-09T12:56:59.549Z,13.26
2023-04-09T12:57:59.530Z,13.17
2023-04-09T12:58:59.502Z,13.27
2023-04-09T12:59:59.485Z,13.31
2023-04-09T13:00:59.554Z,13.04
2023-04-09T13:01:59.750Z,13.05
2023-04-09T13:02:59.756Z,12.99
2023-04-09T13:03:59.787Z,13.04
2023-04-09T13:04:59.722Z,13.02
2023-04-09T13:05:59.770Z,12.92
2023-04-09T13:06:59.836Z,12.94
2023-04-09T13:07:59.886Z,13.01
2023-04-09T13:08:59.930Z,13.14
2023-04-09T13:09:59.974Z,12.84
2023-04-09T13:11:00.046Z,12.62
2023-04-09T13:12:00.085Z,12.50